createdAt,value
2018-06-29T00:01:32.530Z,18.50
2018-06-29T00:04:01.938Z,18.40
2018-06-29T00:06:31.395Z,18.40
2018-06-29T00:11:30.210Z,18.40
2018-06-29T00:16:29.853Z,18.30
2018-06-29T00:19:01.170Z,18.20
2018-06-29T00:24:00.346Z,18.20
2018-06-29T00:26:29.696Z,18.20
2018-06-29T00:31:30.669Z,18.10
2018-06-29T00:34:00.051Z,18.10
2018-06-29T00:38:58.345Z,18.00
2018-06-29T00:43:56.612Z,17.90
2018-06-29T00:46:26.700Z,17.90
2018-06-29T00:48:56.074Z,17.90
2018-06-29T00:51:25.362Z,17.90
2018-06-29T00:53:54.778Z,17.90
2018-06-29T00:56:24.080Z,17.90
2018-06-29T00:59:01.046Z,17.90
2018-06-29T01:04:07.005Z,17.80
2018-06-29T01:11:37.264Z,17.70
2018-06-29T01:16:36.824Z,17.70
2018-06-29T01:19:06.510Z,17.60
2018-06-29T01:21:36.265Z,17.60
2018-06-29T01:24:06.357Z,17.60
2018-06-29T01:26:36.336Z,17.60
2018-06-29T01:31:34.824Z,17.50
2018-06-29T01:39:02.854Z,17.50
2018-06-29T01:41:32.359Z,17.50
2018-06-29T01:44:01.763Z,17.40
2018-06-29T01:46:31.168Z,17.40
2018-06-29T01:49:00.673Z,17.40
2018-06-29T01:51:30.664Z,17.40
2018-06-29T01:56:29.652Z,17.30
2018-06-29T01:58:59.043Z,17.30
2018-06-29T02:01:28.359Z,17.30
2018-06-29T02:03:57.627Z,17.30
2018-06-29T02:06:27.043Z,17.30
2018-06-29T02:08:56.438Z,17.30
2018-06-29T02:11:25.719Z,17.30
2018-06-29T02:13:55.084Z,17.30
2018-06-29T02:18:53.423Z,17.20
2018-06-29T02:21:22.677Z,17.20
2018-06-29T02:33:48.825Z,17.10
2018-06-29T02:36:18.149Z,17.10
2018-06-29T02:41:16.541Z,17.00
2018-06-29T02:46:15.045Z,17.00
2018-06-29T02:51:13.534Z,17.00
2018-06-29T02:58:40.749Z,16.90
2018-06-29T03:01:10.144Z,16.90
2018-06-29T03:03:39.617Z,16.90
2018-06-29T03:06:08.931Z,16.90
2018-06-29T03:11:07.179Z,16.90
2018-06-29T03:13:36.622Z,16.90
2018-06-29T03:18:35.107Z,16.90
2018-06-29T03:23:33.751Z,16.90
2018-06-29T03:26:03.086Z,16.90
2018-06-29T03:28:32.353Z,16.90
2018-06-29T03:31:02.814Z,16.90
2018-06-29T03:33:32.183Z,16.90
2018-06-29T03:36:01.489Z,16.90
2018-06-29T03:38:30.867Z,16.90
2018-06-29T03:41:00.791Z,16.90
2018-06-29T03:43:30.143Z,17.00
2018-06-29T03:46:00.400Z,16.90
2018-06-29T03:48:30.364Z,16.90
2018-06-29T03:50:59.939Z,16.90
2018-06-29T03:53:29.294Z,16.90
2018-06-29T03:55:58.699Z,16.90
2018-06-29T03:58:28.052Z,16.90
2018-06-29T04:00:57.572Z,17.00
2018-06-29T04:03:27.104Z,17.00
2018-06-29T04:05:56.715Z,17.10
2018-06-29T04:08:26.091Z,17.10
2018-06-29T04:10:55.963Z,17.20
2018-06-29T04:13:25.304Z,17.20
2018-06-29T04:15:54.679Z,17.30
2018-06-29T04:18:24.007Z,17.30
2018-06-29T04:20:53.360Z,17.40
2018-06-29T04:23:22.698Z,17.50
2018-06-29T04:25:52.048Z,17.50
2018-06-29T04:30:50.238Z,17.60
2018-06-29T04:33:19.635Z,17.70
2018-06-29T04:43:17.050Z,17.90
2018-06-29T04:45:46.581Z,18.00
2018-06-29T04:48:15.986Z,18.10
2018-06-29T04:50:45.244Z,18.20
2018-06-29T04:55:43.578Z,18.30
2018-06-29T04:58:12.938Z,18.40
2018-06-29T05:03:12.548Z,18.60
2018-06-29T05:05:42.190Z,18.70
2018-06-29T05:08:11.510Z,18.80
2018-06-29T05:10:40.831Z,18.80
2018-06-29T05:13:10.461Z,18.90
2018-06-29T05:15:39.760Z,18.90
2018-06-29T05:18:09.443Z,19.00
2018-06-29T05:20:38.758Z,19.10
2018-06-29T05:23:08.069Z,19.20
2018-06-29T05:28:06.279Z,19.30
2018-06-29T05:33:04.578Z,19.50
2018-06-29T05:35:33.852Z,19.60
2018-06-29T05:38:03.407Z,19.70
2018-06-29T05:40:33.439Z,19.80
2018-06-29T05:43:02.789Z,19.90
2018-06-29T05:48:01.207Z,20.20
2018-06-29T05:50:30.579Z,20.20
2018-06-29T05:55:29.216Z,20.50
2018-06-29T05:57:59.501Z,20.60
2018-06-29T06:02:57.765Z,20.90
2018-06-29T06:05:27.285Z,21.10
2018-06-29T06:07:56.697Z,21.30
2018-06-29T06:17:52.942Z,21.70
2018-06-29T06:20:22.345Z,21.80
2018-06-29T06:22:51.624Z,21.90
2018-06-29T06:25:21.008Z,22.00
2018-06-29T06:27:50.434Z,22.10
2018-06-29T06:30:19.861Z,22.20
2018-06-29T06:32:49.253Z,22.20
2018-06-29T06:35:18.558Z,22.30
2018-06-29T06:37:48.149Z,22.40
2018-06-29T06:40:17.540Z,22.50
2018-06-29T06:42:46.843Z,22.50
2018-06-29T06:45:16.239Z,22.60
2018-06-29T06:47:45.666Z,22.80
2018-06-29T06:50:15.228Z,22.80
2018-06-29T06:52:44.768Z,22.90
2018-06-29T06:55:14.110Z,23.10
2018-06-29T07:00:12.676Z,23.30
2018-06-29T07:02:41.961Z,23.30
2018-06-29T07:05:11.997Z,23.40
2018-06-29T07:07:42.635Z,23.60
2018-06-29T07:10:13.777Z,23.60
2018-06-29T07:12:43.299Z,23.80
2018-06-29T07:15:15.252Z,23.80
2018-06-29T07:17:45.976Z,23.90
2018-06-29T07:22:52.067Z,24.10
2018-06-29T07:30:20.023Z,24.40
2018-06-29T07:32:49.465Z,24.50
2018-06-29T07:43:14.009Z,24.70
2018-06-29T07:48:12.976Z,25.00
2018-06-29T07:50:42.445Z,25.10
2018-06-29T07:53:12.986Z,25.20
2018-06-29T07:55:43.303Z,25.40
2018-06-29T07:58:12.810Z,25.50
2018-06-29T08:00:42.110Z,25.70
2018-06-29T08:03:11.865Z,25.90
2018-06-29T08:05:41.349Z,25.80
2018-06-29T08:08:11.656Z,25.90
2018-06-29T08:10:41.158Z,25.80
2018-06-29T08:13:10.565Z,25.80
2018-06-29T08:15:39.917Z,25.70
2018-06-29T08:18:09.276Z,25.90
2018-06-29T08:20:38.680Z,26.00
2018-06-29T08:23:08.087Z,26.00
2018-06-29T08:25:37.549Z,26.00
2018-06-29T08:30:36.557Z,26.00
2018-06-29T08:33:06.536Z,26.00
2018-06-29T08:35:37.112Z,26.00
2018-06-29T08:38:06.619Z,26.00
2018-06-29T08:40:36.762Z,26.10
2018-06-29T08:43:07.181Z,26.10
2018-06-29T08:45:36.629Z,26.00
2018-06-29T08:50:35.075Z,26.30
2018-06-29T08:53:04.461Z,26.50
2018-06-29T08:55:36.761Z,26.70
2018-06-29T08:58:06.884Z,26.80
2018-06-29T09:00:36.249Z,26.60
2018-06-29T09:03:06.716Z,26.60
2018-06-29T09:05:36.623Z,26.70
2018-06-29T09:08:10.252Z,26.70
2018-06-29T09:10:39.934Z,26.70
2018-06-29T09:13:09.336Z,26.70
2018-06-29T09:15:38.677Z,26.70
2018-06-29T09:20:36.909Z,26.90
2018-06-29T09:23:07.289Z,27.00
2018-06-29T09:25:37.380Z,27.20
2018-06-29T09:28:07.511Z,27.30
2018-06-29T09:30:36.951Z,27.30
2018-06-29T09:33:06.769Z,27.30
2018-06-29T09:35:36.254Z,27.70
2018-06-29T09:40:34.905Z,27.90
2018-06-29T09:43:05.024Z,28.20
2018-06-29T09:45:34.443Z,28.10
2018-06-29T09:48:04.344Z,27.70
2018-06-29T09:50:33.584Z,27.60
2018-06-29T09:55:36.599Z,27.50
2018-06-29T09:58:07.063Z,27.30
2018-06-29T10:00:36.524Z,27.20
2018-06-29T10:03:07.830Z,27.30
2018-06-29T10:05:37.279Z,27.60
2018-06-29T10:08:06.973Z,27.70
2018-06-29T10:10:38.053Z,27.90
2018-06-29T10:13:07.674Z,28.00
2018-06-29T10:15:37.648Z,28.00
2018-06-29T10:20:36.703Z,27.80
2018-06-29T10:23:06.690Z,27.80
2018-06-29T10:25:36.450Z,27.80
2018-06-29T10:28:09.372Z,28.20
2018-06-29T10:30:39.556Z,28.10
2018-06-29T10:33:08.908Z,28.10
2018-06-29T10:35:38.465Z,28.00
2018-06-29T10:38:08.578Z,28.10
2018-06-29T10:40:41.131Z,28.20
2018-06-29T10:43:10.660Z,28.20
2018-06-29T10:45:40.403Z,28.30
2018-06-29T10:48:10.805Z,28.50
2018-06-29T10:53:10.007Z,28.20
2018-06-29T10:55:39.769Z,28.30
2018-06-29T10:58:09.532Z,28.50
2018-06-29T11:00:43.701Z,28.50
2018-06-29T11:03:13.744Z,28.50
2018-06-29T11:05:43.128Z,28.50
2018-06-29T11:08:12.525Z,28.50
2018-06-29T11:10:42.064Z,28.60
2018-06-29T11:13:11.462Z,28.60
2018-06-29T11:15:41.676Z,28.70
2018-06-29T11:18:11.877Z,29.00
2018-06-29T11:20:42.324Z,29.20
2018-06-29T11:23:11.788Z,29.80
2018-06-29T11:25:41.378Z,29.70
2018-06-29T11:30:39.877Z,29.50
2018-06-29T11:35:39.194Z,29.50
2018-06-29T11:40:39.041Z,29.30
2018-06-29T11:43:08.469Z,29.30
2018-06-29T11:45:37.952Z,29.60
2018-06-29T11:48:07.366Z,29.60
2018-06-29T11:50:36.731Z,29.20
2018-06-29T11:55:35.543Z,29.00
2018-06-29T11:58:06.006Z,28.90
2018-06-29T12:00:35.719Z,29.10
2018-06-29T12:03:05.669Z,29.10
2018-06-29T12:05:35.872Z,29.20
2018-06-29T12:08:13.127Z,29.00
2018-06-29T12:10:42.504Z,29.00
2018-06-29T12:15:41.388Z,29.00
2018-06-29T12:20:42.051Z,29.90
2018-06-29T12:23:11.735Z,30.30
2018-06-29T12:25:42.863Z,30.30
2018-06-29T12:28:12.838Z,30.80
2018-06-29T12:30:42.546Z,31.10
2018-06-29T12:33:12.645Z,31.80
2018-06-29T12:35:45.000Z,32.50
2018-06-29T12:38:16.308Z,33.00
2018-06-29T12:40:45.869Z,33.70
2018-06-29T12:43:15.516Z,34.30
2018-06-29T12:45:44.996Z,35.50
2018-06-29T12:48:16.272Z,35.70
2018-06-29T12:50:45.706Z,34.70
2018-06-29T12:53:15.942Z,34.70
2018-06-29T12:58:14.264Z,35.30
2018-06-29T13:00:43.946Z,35.10
2018-06-29T13:03:13.741Z,34.70
2018-06-29T13:05:43.979Z,35.10
2018-06-29T13:08:13.280Z,35.70
2018-06-29T13:10:42.916Z,36.60
2018-06-29T13:13:12.357Z,38.00
2018-06-29T13:15:41.900Z,37.00
2018-06-29T13:18:11.560Z,36.10
2018-06-29T13:20:40.996Z,34.90
2018-06-29T13:30:43.312Z,35.50
2018-06-29T13:33:12.745Z,35.90
2018-06-29T13:35:54.024Z,36.80
2018-06-29T13:38:45.244Z,37.10
2018-06-29T13:41:15.618Z,36.80
2018-06-29T13:43:45.290Z,37.30
2018-06-29T13:46:15.271Z,37.40
2018-06-29T13:51:13.676Z,39.30
2018-06-29T13:53:43.118Z,40.00
2018-06-29T13:56:20.307Z,40.30
2018-06-29T13:59:14.384Z,39.70
2018-06-29T14:01:54.724Z,38.20
2018-06-29T14:04:44.772Z,37.50
2018-06-29T14:09:46.401Z,36.00
2018-06-29T14:14:47.468Z,36.90
2018-06-29T14:17:19.142Z,37.10
2018-06-29T14:19:48.589Z,36.60
2018-06-29T14:22:18.743Z,35.90
2018-06-29T14:24:49.325Z,34.80
2018-06-29T14:27:18.946Z,35.20
2018-06-29T14:29:48.422Z,35.60
2018-06-29T14:34:47.098Z,34.00
2018-06-29T14:37:18.006Z,33.40
2018-06-29T14:39:47.709Z,32.70
2018-06-29T14:42:17.861Z,32.40
2018-06-29T14:44:47.985Z,32.20
2018-06-29T14:47:19.089Z,31.90
2018-06-29T14:49:48.602Z,32.40
2018-06-29T14:52:19.405Z,33.00
2018-06-29T14:54:48.802Z,34.30
2018-06-29T14:57:18.208Z,35.90
2018-06-29T14:59:47.641Z,36.80
2018-06-29T15:02:18.273Z,37.90
2018-06-29T15:04:48.960Z,38.80
2018-06-29T15:07:18.732Z,37.50
2018-06-29T15:09:51.674Z,36.70
2018-06-29T15:12:22.236Z,35.60
2018-06-29T15:14:52.238Z,35.40
2018-06-29T15:17:22.415Z,35.50
2018-06-29T15:24:50.672Z,37.60
2018-06-29T15:27:20.124Z,39.10
2018-06-29T15:29:49.579Z,38.60
2018-06-29T15:32:18.938Z,36.80
2018-06-29T15:37:17.866Z,34.30
2018-06-29T15:40:10.675Z,33.60
2018-06-29T15:56:41.456Z,29.20
2018-06-29T15:59:11.194Z,28.90
2018-06-29T16:06:43.700Z,28.10
2018-06-29T16:09:15.948Z,28.80
2018-06-29T16:11:58.286Z,29.20
2018-06-29T16:14:28.360Z,29.10
2018-06-29T16:16:57.902Z,29.10
2018-06-29T16:19:27.280Z,28.20
2018-06-29T16:21:56.777Z,28.00
2018-06-29T16:24:26.125Z,27.80
2018-06-29T16:29:24.490Z,26.90
2018-06-29T16:31:53.888Z,26.80
2018-06-29T16:34:23.317Z,26.80
2018-06-29T16:36:52.770Z,26.40
2018-06-29T16:39:22.238Z,26.30
2018-06-29T16:46:49.515Z,26.00
2018-06-29T16:54:19.426Z,25.00
2018-06-29T16:56:48.958Z,24.90
2018-06-29T17:01:47.918Z,25.10
2018-06-29T17:04:17.339Z,25.30
2018-06-29T17:06:46.674Z,25.20
2018-06-29T17:09:15.984Z,24.80
2018-06-29T17:14:15.086Z,24.60
2018-06-29T17:19:13.463Z,24.30
2018-06-29T17:21:42.964Z,24.00
2018-06-29T17:24:12.301Z,23.80
2018-06-29T17:26:41.609Z,23.50
2018-06-29T17:29:11.412Z,23.30
2018-06-29T17:31:40.853Z,23.20
2018-06-29T17:34:10.776Z,22.90
2018-06-29T17:36:40.632Z,22.60
2018-06-29T17:44:10.636Z,22.50
2018-06-29T17:46:44.748Z,22.50
2018-06-29T17:49:16.510Z,22.50
2018-06-29T17:51:47.610Z,22.50
2018-06-29T17:54:16.976Z,22.40
2018-06-29T17:56:46.419Z,22.40
2018-06-29T17:59:17.577Z,22.30
2018-06-29T18:01:47.702Z,22.30
2018-06-29T18:04:17.068Z,22.40
2018-06-29T18:06:46.436Z,22.50
2018-06-29T18:09:15.797Z,22.50
2018-06-29T18:11:45.169Z,22.50
2018-06-29T18:14:14.667Z,22.40
2018-06-29T18:19:14.322Z,22.00
2018-06-29T18:21:43.688Z,21.90
2018-06-29T18:24:13.607Z,21.80
2018-06-29T18:26:43.210Z,21.70
2018-06-29T18:31:42.224Z,21.60
2018-06-29T18:36:40.901Z,21.50
2018-06-29T18:39:11.354Z,21.50
2018-06-29T18:44:10.308Z,21.30
2018-06-29T18:46:40.198Z,21.20
2018-06-29T18:49:09.820Z,21.10
2018-06-29T18:51:39.870Z,21.10
2018-06-29T18:54:09.948Z,21.10
2018-06-29T18:56:39.504Z,21.00
2018-06-29T18:59:08.872Z,21.00
2018-06-29T19:01:38.375Z,20.80
2018-06-29T19:04:08.641Z,20.80
2018-06-29T19:09:08.520Z,20.90
2018-06-29T19:11:38.906Z,20.80
2018-06-29T19:14:11.372Z,20.70
2018-06-29T19:16:44.529Z,20.70
2018-06-29T19:19:13.990Z,20.60
2018-06-29T19:21:46.105Z,20.40
2018-06-29T19:24:15.481Z,20.40
2018-06-29T19:26:46.497Z,20.30
2018-06-29T19:29:16.498Z,20.20
2018-06-29T19:32:14.347Z,20.10
2018-06-29T19:34:45.842Z,20.10
2018-06-29T19:37:15.816Z,20.00
2018-06-29T19:44:49.300Z,19.90
2018-06-29T19:47:22.043Z,19.80
2018-06-29T19:49:51.761Z,19.80
2018-06-29T19:52:23.569Z,19.80
2018-06-29T19:54:57.783Z,19.60
2018-06-29T19:57:29.099Z,19.60
2018-06-29T19:59:59.757Z,19.50
2018-06-29T20:02:29.290Z,19.50
2018-06-29T20:07:29.771Z,19.30
2018-06-29T20:09:59.118Z,19.20
2018-06-29T20:12:32.309Z,19.10
2018-06-29T20:17:34.021Z,19.00
2018-06-29T20:20:04.186Z,18.90
2018-06-29T20:22:34.263Z,18.80
2018-06-29T20:25:03.683Z,18.80
2018-06-29T20:27:33.209Z,18.70
2018-06-29T20:30:04.086Z,18.60
2018-06-29T20:32:33.626Z,18.50
2018-06-29T20:35:03.179Z,18.40
2018-06-29T20:40:12.863Z,18.40
2018-06-29T20:42:49.691Z,18.30
2018-06-29T20:45:19.684Z,18.20
2018-06-29T20:47:50.697Z,18.20
2018-06-29T20:50:20.569Z,18.10
2018-06-29T20:52:51.887Z,18.10
2018-06-29T20:58:01.554Z,18.00
2018-06-29T21:00:31.390Z,17.90
2018-06-29T21:03:02.845Z,17.90
2018-06-29T21:08:13.396Z,17.90
2018-06-29T21:10:44.623Z,17.80
2018-06-29T21:13:18.035Z,17.70
2018-06-29T21:15:50.256Z,17.70
2018-06-29T21:20:57.809Z,17.60
2018-06-29T21:23:27.799Z,17.50
2018-06-29T21:25:57.736Z,17.40
2018-06-29T21:28:44.186Z,17.40
2018-06-29T21:33:48.982Z,17.30
2018-06-29T21:36:18.458Z,17.20
2018-06-29T21:38:47.825Z,17.20
2018-06-29T21:41:17.296Z,17.20
2018-06-29T21:43:47.393Z,17.10
2018-06-29T21:46:17.555Z,17.10
2018-06-29T21:48:46.941Z,17.00
2018-06-29T21:51:16.290Z,17.10
2018-06-29T21:56:16.744Z,16.90
2018-06-29T21:58:46.106Z,17.00
2018-06-29T22:03:44.830Z,16.90
2018-06-29T22:08:48.955Z,16.80
2018-06-29T22:11:19.084Z,16.70
2018-06-29T22:18:47.420Z,16.60
2018-06-29T22:21:16.777Z,16.60
2018-06-29T22:23:48.099Z,16.50
2018-06-29T22:26:17.430Z,16.40
2018-06-29T22:28:46.800Z,16.40
2018-06-29T22:31:16.265Z,16.40
2018-06-29T22:33:45.634Z,16.40
2018-06-29T22:38:44.129Z,16.30
2018-06-29T22:41:14.336Z,16.30
2018-06-29T22:43:43.741Z,16.30
2018-06-29T22:46:13.109Z,16.20
2018-06-29T22:48:42.461Z,16.20
2018-06-29T22:53:40.647Z,16.10
2018-06-29T23:01:08.556Z,16.00
2018-06-29T23:03:43.112Z,16.00
2018-06-29T23:06:12.612Z,15.90
2018-06-29T23:08:42.116Z,15.90
2018-06-29T23:11:11.514Z,15.90
2018-06-29T23:13:40.998Z,15.80
2018-06-29T23:16:10.433Z,15.80
2018-06-29T23:18:39.736Z,15.80
2018-06-29T23:21:09.148Z,15.70
2018-06-29T23:23:39.255Z,15.70
2018-06-29T23:26:08.651Z,15.60
2018-06-29T23:28:38.205Z,15.60
2018-06-29T23:31:08.560Z,15.60
2018-06-29T23:33:37.965Z,15.60
2018-06-29T23:36:07.356Z,15.60
2018-06-29T23:41:16.873Z,15.50
2018-06-29T23:43:47.248Z,15.40
2018-06-29T23:46:17.701Z,15.40
2018-06-29T23:48:47.177Z,15.40
2018-06-29T23:51:17.425Z,15.30
2018-06-29T23:53:46.801Z,15.30
2018-06-29T23:56:16.212Z,15.30
2018-06-29T23:58:45.555Z,15.30
